George Bush Intercontinental Houston Airport
KIAH : now visible

Airfield :











YOU CAN JOIN US ON...

 
LOGIN :

Register | Disclaimer

   EN    FR    IT 

 









Legend :    VFR   Marginal VFR   IFR   Intensive IFR   Very Intensive IFR
Visi :
Ceiling :
>= 8 km
>= 3000ft
5 to 8 km
1000 to 3000 ft
1500m to 5 km
500 to 1000 ft
800 to 1500m
200 to 500 ft
< 800m
< 200 ft
Symbols :   Thunderstorms  Fog  Heavy snow  Heavy precipitations  Wind > 20 kt






- Airport Elevation : 97 ft
- IATA code : IAH


KIAH - George Bush Intercontinental Houston

CURRENT METAR :
  • 011529Z 01010KT 4SM -RA BR BKN005 OVC033 03/02 A3030 RMK AO2 P0005 T00280022

EXPIRED METARs :
  • 011513Z 35007KT 1SM RA BR OVC005 03/02 A3031 RMK AO2 P0003 T00280022
  • 011453Z 34006KT 2SM RA BR BKN005 OVC025 03/02 A3030 RMK AO2 SLP262 P0002 60007 T00280022 51011
  • 011428Z 02011KT 3SM -RA BR BKN006 OVC025 03/02 A3028 RMK AO2 P0002 T00280022
  • 011353Z 36008KT 2SM -RA BR OVC006 03/02 A3029 RMK AO2 SLP259 P0002 T00280017
  • 011253Z 34007KT 7SM -RA OVC007 03/02 A3029 RMK AO2 RAB1159 PRESRR SLP259 P0003 T00280017

TAF KIAH
Valid from the 01 at 15:00 until the 02 at 18:00 UTC


011509Z 0115/0218 36010KT 3SM -RA BR BKN007 OVC025
TEMPO 0115/0118 2SM -SHRA BR OVC005
FM011800 02010KT 5SM -DZ BR VCSH OVC007
TEMPO 0121/0201 3SM -SHRA BR
FM020800 02009KT 4SM -SHRA BR OVC005
KZHU FIR / North America



MET'MAP, your aeronautical weather chart ! - Copyright ORBIFLY December 2007 - Disclaimer

ORBIFLY MET'MAP TEAM :

Programming & Development : Alexandra Zaïnal
Original concept : Baudouin d'Aumeries
Technical & hardware support : Manuel Goepfert
Assistance : Marc-Olivier Méhu




SOURCES & CREDITS :

   NOAA       Earth
Advisory